Time;durP1;ratioP1;P1;durP2;ratioP2;P2;SDS_P1;SDS_P2;PMS_P1;PMS_P2;Temp;Humidity;BMP_temperature;BMP_pressure;BME280_temperature;BME280_humidity;BME280_pressure;Samples;Min_cycle;Max_cycle;Signal;HPM_P1;HPM_P2
2022/10/08 00:02:21;;;;;;;;;5.00;4.00;;;;;14.88;58.13;101642.97;5067415;28;45327;-63
2022/10/08 00:04:46;;;;;;;;;4.00;4.00;;;;;15.05;58.31;101671.97;5057840;28;46073;-63
2022/10/08 00:07:11;;;;;;;;;4.75;4.00;;;;;15.06;58.27;101676.41;5047743;28;45576;-63
2022/10/08 00:09:37;;;;;;;;;5.00;5.00;;;;;14.88;58.38;101648.34;5054371;28;45479;-63
2022/10/08 00:12:03;;;;;;;;;4.00;4.00;;;;;14.96;58.41;101659.72;5054692;28;45543;-63
2022/10/08 00:14:28;;;;;;;;;6.00;3.50;;;;;14.83;58.17;101642.25;5058430;28;45719;-63
2022/10/08 00:16:54;;;;;;;;;4.25;3.75;;;;;14.79;58.20;101629.88;5058341;28;45457;-63
2022/10/08 00:19:19;;;;;;;;;4.00;4.00;;;;;14.79;58.30;101636.13;5058289;28;46146;-63
2022/10/08 00:21:45;;;;;;;;;1.00;1.00;;;;;14.97;58.52;101661.47;5056695;28;45363;-63
2022/10/08 00:24:14;;;;;;;;;3.00;3.00;;;;;15.00;58.44;101665.84;5058610;28;45568;-63
2022/10/08 00:26:40;;;;;;;;;6.25;4.75;;;;;15.00;58.54;101663.16;5058216;28;45625;-63
2022/10/08 00:29:06;;;;;;;;;3.00;3.00;;;;;14.77;58.49;101634.44;5058140;28;45455;-63
2022/10/08 00:31:39;;;;;;;;;6.00;6.00;;;;;15.02;58.14;101672.06;5058102;28;45332;-63
2022/10/08 00:34:07;;;;;;;;;2.75;2.75;;;;;14.93;58.29;101657.13;5057663;28;45246;-63
2022/10/08 00:36:36;;;;;;;;;4.75;3.00;;;;;14.81;58.59;101641.44;5051818;28;45589;-63
2022/10/08 00:39:07;;;;;;;;;3.25;3.25;;;;;14.96;58.56;101678.53;5038977;28;47599;-63
2022/10/08 00:41:37;;;;;;;;;3.00;3.00;;;;;15.00;58.43;101673.91;5040105;28;45722;-63
2022/10/08 00:44:41;;;;;;;;;3.00;3.00;;;;;14.79;58.38;101646.00;5058198;28;45627;-63
2022/10/08 00:47:15;;;;;;;;;3.25;2.00;;;;;14.75;58.56;101637.19;5057647;28;45474;-63
2022/10/08 00:49:41;;;;;;;;;4.00;3.00;;;;;14.98;58.50;101686.53;5058229;28;45634;-63
2022/10/08 00:52:06;;;;;;;;;3.50;3.50;;;;;14.96;58.61;101675.84;5057941;28;45732;-63
2022/10/08 00:54:32;;;;;;;;;3.25;3.25;;;;;14.77;58.70;101655.94;5058023;28;45521;-63
2022/10/08 00:56:57;;;;;;;;;3.00;3.00;;;;;14.74;58.57;101648.84;5057711;28;45657;-63
2022/10/08 00:59:23;;;;;;;;;3.00;3.00;;;;;14.88;58.41;101672.53;5056889;28;46283;-63
2022/10/08 01:01:49;;;;;;;;;4.50;2.25;;;;;14.76;58.53;101651.50;5038764;28;46678;-64
2022/10/08 01:04:15;;;;;;;;;4.50;4.50;;;;;14.95;58.85;101684.84;5057341;28;45529;-63
2022/10/08 01:06:57;;;;;;;;;4.00;3.75;;;;;14.95;59.02;101687.53;5060269;28;45667;-63
2022/10/08 01:09:32;;;;;;;;;3.25;3.00;;;;;14.94;58.98;101677.72;5056772;28;45709;-63
2022/10/08 01:12:21;;;;;;;;;4.25;4.00;;;;;14.91;58.80;101669.75;5039225;28;45457;-63
2022/10/08 01:15:06;;;;;;;;;2.75;2.75;;;;;14.94;58.88;101682.22;5056978;28;45327;-64
2022/10/08 01:17:53;;;;;;;;;2.50;2.00;;;;;14.94;58.87;101679.53;5064954;28;45457;-63
2022/10/08 01:20:48;;;;;;;;;3.75;1.50;;;;;14.82;59.11;101662.03;5042276;28;47201;-63
2022/10/08 01:23:51;;;;;;;;;3.00;2.00;;;;;14.91;58.94;101677.81;5047201;28;45465;-64
2022/10/08 01:26:35;;;;;;;;;3.50;3.00;;;;;14.90;58.94;101678.78;5046002;28;45674;-63
2022/10/08 01:29:04;;;;;;;;;2.50;2.00;;;;;14.92;59.06;101679.59;5042087;28;45308;-63
2022/10/08 01:31:38;;;;;;;;;5.50;2.50;;;;;14.91;59.39;101672.44;5040952;28;48271;-63
2022/10/08 01:34:10;;;;;;;;;3.00;3.00;;;;;14.73;58.93;101636.34;5060913;28;45609;-63
2022/10/08 01:36:42;;;;;;;;;5.25;3.00;;;;;14.73;59.17;101632.78;5042880;28;45434;-63
2022/10/08 01:39:12;;;;;;;;;1.25;1.25;;;;;14.77;59.23;101638.00;5059780;28;45414;-63
2022/10/08 01:41:41;;;;;;;;;2.75;2.00;;;;;14.91;59.48;101667.06;5059197;28;45610;-63
2022/10/08 01:44:14;;;;;;;;;2.00;2.00;;;;;14.73;59.52;101632.78;5030155;28;45521;-63
2022/10/08 01:46:42;;;;;;;;;2.50;1.75;;;;;14.85;59.61;101653.88;5026201;28;45458;-63
2022/10/08 01:49:13;;;;;;;;;2.00;1.00;;;;;14.95;59.43;101663.34;5060904;28;45526;-64
2022/10/08 01:51:46;;;;;;;;;2.75;1.25;;;;;14.71;59.63;101630.16;5059942;28;45624;-63
2022/10/08 01:54:15;;;;;;;;;5.25;2.00;;;;;14.89;59.66;101662.69;5060566;28;45505;-63
2022/10/08 01:56:43;;;;;;;;;2.00;1.00;;;;;14.80;59.61;101651.34;5041858;28;45521;-63
2022/10/08 01:59:21;;;;;;;;;3.00;2.00;;;;;14.54;59.72;101605.66;5060413;28;45453;-64
2022/10/08 02:02:13;;;;;;;;;2.00;2.00;;;;;14.62;59.70;101614.38;5041895;28;47604;-63
2022/10/08 02:04:39;;;;;;;;;0.75;0.75;;;;;14.53;59.90;101603.91;5060440;28;45665;-63
2022/10/08 02:07:09;;;;;;;;;1.00;1.00;;;;;14.90;60.18;101657.25;5060578;28;45469;-63
2022/10/08 02:09:38;;;;;;;;;1.00;1.00;;;;;14.61;60.39;101613.47;5059165;28;45429;-63
2022/10/08 02:12:05;;;;;;;;;2.00;1.00;;;;;14.55;59.94;101597.56;5046173;28;47712;-63
2022/10/08 02:14:33;;;;;;;;;3.00;1.75;;;;;14.66;60.07;101621.38;5060150;28;45589;-63
2022/10/08 02:17:04;;;;;;;;;2.50;2.50;;;;;14.89;60.55;101660.88;5060410;28;45532;-63
2022/10/08 02:19:55;;;;;;;;;1.50;1.50;;;;;14.90;60.46;101661.75;5059888;28;45269;-63
2022/10/08 02:22:28;;;;;;;;;1.00;1.00;;;;;14.89;60.33;101665.38;5059747;28;47341;-63
2022/10/08 02:25:12;;;;;;;;;1.00;1.00;;;;;14.88;60.68;101658.25;5042169;28;45597;-63
2022/10/08 02:27:59;;;;;;;;;1.50;1.50;;;;;14.78;60.46;101638.88;5058847;28;45383;-63
2022/10/08 02:30:32;;;;;;;;;2.00;2.00;;;;;14.87;60.60;101662.75;5040509;28;45497;-63
2022/10/08 02:33:03;;;;;;;;;1.75;1.00;;;;;14.66;60.56;101625.88;5060068;28;45543;-63
2022/10/08 02:36:00;;;;;;;;;3.00;2.00;;;;;14.85;60.93;101652.97;5059909;28;45315;-63
2022/10/08 02:38:39;;;;;;;;;3.00;3.00;;;;;14.69;60.69;101632.03;5018728;28;45536;-63
2022/10/08 02:41:08;;;;;;;;;4.25;2.75;;;;;14.78;60.82;101644.25;5058976;28;45454;-63
2022/10/08 02:43:40;;;;;;;;;3.00;3.00;;;;;14.76;60.76;101632.69;5059694;28;46269;-63
2022/10/08 02:46:13;;;;;;;;;3.00;3.00;;;;;14.71;60.73;101624.78;5041649;28;45532;-63
2022/10/08 02:48:44;;;;;;;;;3.00;2.00;;;;;14.84;60.38;101648.53;5059881;28;45453;-63
2022/10/08 02:51:14;;;;;;;;;6.00;3.00;;;;;14.78;60.41;101644.25;5059410;28;45562;-63
2022/10/08 02:53:40;;;;;;;;;4.50;2.50;;;;;14.75;60.86;101634.50;5059451;28;46626;-63
2022/10/08 02:56:18;;;;;;;;;3.00;3.00;;;;;14.76;60.51;101643.44;5059495;28;45395;-64
2022/10/08 02:58:45;;;;;;;;;5.00;3.50;;;;;14.72;60.56;101633.72;5058622;28;45328;-63
2022/10/08 03:01:31;;;;;;;;;2.00;2.00;;;;;14.83;60.75;101650.31;5056013;28;45261;-63
2022/10/08 03:04:26;;;;;;;;;3.00;3.00;;;;;14.83;60.81;101661.09;5059377;28;45595;-63
2022/10/08 03:06:53;;;;;;;;;4.75;4.00;;;;;14.72;60.80;101656.09;5034297;28;45558;-63
2022/10/08 03:09:22;;;;;;;;;5.25;4.75;;;;;14.72;60.78;101655.22;5058898;28;46806;-63
2022/10/08 03:11:48;;;;;;;;;2.75;2.00;;;;;14.39;61.36;101613.31;5059215;28;45696;-63
2022/10/08 03:14:17;;;;;;;;;2.00;2.00;;;;;14.63;61.30;101646.56;5058810;28;45691;-63
2022/10/08 03:16:45;;;;;;;;;3.00;3.00;;;;;14.54;61.35;101641.47;5059447;28;45516;-63
2022/10/08 03:19:14;;;;;;;;;1.50;1.50;;;;;14.68;61.50;101662.50;5059338;28;45486;-64
2022/10/08 03:21:42;;;;;;;;;1.50;1.25;;;;;14.63;61.80;101660.00;5059138;28;45427;-63
2022/10/08 03:24:10;;;;;;;;;3.00;1.75;;;;;14.59;62.06;101650.28;5059019;28;45378;-63
2022/10/08 03:26:36;;;;;;;;;3.50;2.75;;;;;14.62;62.13;101662.72;5057846;28;45990;-63
2022/10/08 03:29:02;;;;;;;;;1.25;1.00;;;;;14.48;62.36;101638.97;5059073;28;45439;-63
2022/10/08 03:31:27;;;;;;;;;4.00;3.00;;;;;14.38;61.80;101626.78;5059344;28;45415;-63
2022/10/08 03:33:54;;;;;;;;;2.75;1.75;;;;;14.52;61.49;101651.38;5058928;28;46524;-63
2022/10/08 03:36:21;;;;;;;;;3.00;3.00;;;;;14.51;61.63;101652.31;5061119;28;45277;-63
2022/10/08 03:38:48;;;;;;;;;3.25;3.25;;;;;14.60;61.67;101667.25;5061334;28;45431;-63
2022/10/08 03:41:14;;;;;;;;;1.75;1.75;;;;;14.54;61.45;101665.63;5058537;28;45612;-63
2022/10/08 03:43:40;;;;;;;;;3.00;3.00;;;;;14.31;61.97;101633.31;5052701;28;45541;-63
2022/10/08 03:46:07;;;;;;;;;2.50;1.75;;;;;14.31;62.23;101644.91;5058981;28;45464;-63
2022/10/08 03:48:35;;;;;;;;;1.00;1.00;;;;;14.39;62.05;101669.72;5062110;28;45410;-63
2022/10/08 03:51:06;;;;;;;;;2.00;1.00;;;;;14.48;62.55;101681.09;5058828;28;45346;-63
2022/10/08 03:53:34;;;;;;;;;3.75;2.00;;;;;14.41;62.40;101670.53;5058530;28;46097;-63
2022/10/08 03:56:02;;;;;;;;;2.00;2.00;;;;;14.62;62.62;101697.66;5040474;28;45354;-64
2022/10/08 03:58:28;;;;;;;;;5.00;2.00;;;;;14.44;62.32;101670.44;5058525;28;45457;-63
2022/10/08 04:00:58;;;;;;;;;2.00;2.00;;;;;14.58;62.50;101701.34;5058845;28;45327;-63
2022/10/08 04:03:24;;;;;;;;;2.75;2.00;;;;;14.62;62.51;101705.72;5039971;28;46963;-63
2022/10/08 04:05:50;;;;;;;;;1.50;1.50;;;;;14.45;62.62;101680.25;5058515;28;45379;-63
2022/10/08 04:08:15;;;;;;;;;2.50;2.00;;;;;14.38;62.54;101670.66;5057858;28;45718;-63
2022/10/08 04:10:41;;;;;;;;;2.75;1.50;;;;;14.41;62.78;101675.03;5046645;28;45278;-63
2022/10/08 04:13:06;;;;;;;;;2.50;1.00;;;;;14.60;62.72;101716.53;5061157;28;46519;-63
2022/10/08 04:15:32;;;;;;;;;4.00;3.00;;;;;14.46;63.04;101687.38;5047700;28;45458;-63
2022/10/08 04:17:57;;;;;;;;;1.50;1.50;;;;;14.37;63.21;101678.78;5058634;28;45419;-63
2022/10/08 04:20:23;;;;;;;;;1.00;1.00;;;;;14.61;63.43;101720.06;5058512;28;45650;-63
2022/10/08 04:22:48;;;;;;;;;3.00;2.50;;;;;14.39;63.23;101679.59;5042486;28;46024;-63
2022/10/08 04:25:14;;;;;;;;;1.75;1.75;;;;;14.44;63.38;101696.44;5058326;28;45402;-63
2022/10/08 04:27:39;;;;;;;;;1.00;1.00;;;;;14.43;63.51;101692.88;5057583;28;45375;-63
2022/10/08 04:30:05;;;;;;;;;2.00;2.00;;;;;14.41;63.72;101699.22;5057598;28;45431;-63
2022/10/08 04:32:31;;;;;;;;;1.00;1.00;;;;;14.52;63.83;101709.63;5058183;28;45509;-63
2022/10/08 04:34:56;;;;;;;;;4.25;1.75;;;;;14.56;63.95;101722.88;5058351;28;45371;-63
2022/10/08 04:37:24;;;;;;;;;1.00;1.00;;;;;14.56;64.51;101728.25;5060618;28;45418;-63
2022/10/08 04:39:49;;;;;;;;;1.75;1.75;;;;;14.47;64.14;101704.41;5057395;28;45538;-63
2022/10/08 04:42:15;;;;;;;;;3.75;2.00;;;;;14.65;64.87;101735.19;5057601;28;46076;-63
2022/10/08 04:44:40;;;;;;;;;1.75;1.75;;;;;14.64;64.81;101731.59;5053320;28;45303;-63
2022/10/08 04:47:05;;;;;;;;;1.50;1.25;;;;;14.64;65.18;101736.09;5056232;28;45310;-63
2022/10/08 04:49:31;;;;;;;;;1.25;1.25;;;;;14.66;65.33;101739.59;5058070;28;45442;-63
2022/10/08 04:51:56;;;;;;;;;2.00;2.00;;;;;14.63;65.66;101737.03;5060904;28;45958;-63
2022/10/08 04:54:21;;;;;;;;;2.00;2.00;;;;;14.65;65.30;101745.94;5061656;28;45288;-63
2022/10/08 04:56:47;;;;;;;;;2.00;2.00;;;;;14.68;65.38;101751.19;5060626;28;45490;-63
2022/10/08 04:59:12;;;;;;;;;2.25;2.25;;;;;14.67;65.57;101744.06;5061499;28;45325;-63
2022/10/08 05:01:37;;;;;;;;;1.75;1.75;;;;;14.63;65.62;101737.91;5060556;28;46150;-63
2022/10/08 05:04:03;;;;;;;;;1.25;1.25;;;;;14.71;65.90;101748.38;5061262;28;45268;-63
2022/10/08 05:06:30;;;;;;;;;2.25;2.25;;;;;14.71;65.69;101751.09;5061145;28;45439;-63
2022/10/08 05:08:58;;;;;;;;;3.00;2.00;;;;;14.69;65.92;101750.25;5061469;28;45519;-63
2022/10/08 05:11:25;;;;;;;;;1.75;1.75;;;;;14.70;65.58;101752.03;5059784;28;47435;-63
2022/10/08 05:13:52;;;;;;;;;3.00;3.00;;;;;14.71;66.02;101756.44;5060353;28;45605;-63
2022/10/08 05:16:19;;;;;;;;;2.00;0.50;;;;;14.72;65.97;101755.53;5061210;28;45435;-63
2022/10/08 05:18:45;;;;;;;;;2.25;1.00;;;;;14.68;66.15;101753.88;5061393;28;45459;-63
2022/10/08 05:21:16;;;;;;;;;2.00;2.00;;;;;14.73;66.12;101764.47;5060618;28;45467;-63
2022/10/08 05:23:42;;;;;;;;;2.75;2.00;;;;;14.71;66.10;101767.22;5061035;28;45488;-63
2022/10/08 05:26:16;;;;;;;;;4.50;1.75;;;;;14.73;66.01;101767.16;5060276;28;45437;-63
2022/10/08 05:28:43;;;;;;;;;3.25;3.25;;;;;14.64;66.23;101760.28;5060483;28;45300;-63
2022/10/08 05:31:08;;;;;;;;;1.50;1.50;;;;;14.74;66.33;101775.16;5060259;28;46234;-63
2022/10/08 05:33:35;;;;;;;;;2.00;2.00;;;;;14.74;66.14;101777.00;5061254;28;45396;-63
2022/10/08 05:36:05;;;;;;;;;2.00;1.75;;;;;14.69;66.10;101770.88;5060941;28;45408;-63
2022/10/08 05:38:31;;;;;;;;;3.25;2.00;;;;;14.69;66.32;101774.44;5054584;28;45411;-63
2022/10/08 05:41:07;;;;;;;;;4.50;2.50;;;;;14.70;66.18;101778.00;5058809;28;46330;-63
2022/10/08 05:43:32;;;;;;;;;4.75;2.00;;;;;14.70;66.20;101775.31;5049701;28;45666;-63
2022/10/08 05:45:58;;;;;;;;;2.00;2.00;;;;;14.69;66.47;101778.94;5060902;28;45479;-63
2022/10/08 05:48:23;;;;;;;;;1.50;1.50;;;;;14.74;66.17;101790.44;5060483;28;53566;-63
2022/10/08 05:50:48;;;;;;;;;6.00;2.50;;;;;14.72;66.30;101785.09;5060699;28;45724;-63
2022/10/08 05:53:14;;;;;;;;;2.00;2.00;;;;;14.76;66.24;101788.56;5060240;28;45368;-63
2022/10/08 05:55:39;;;;;;;;;3.75;3.00;;;;;14.75;66.37;101785.00;5060781;28;45346;-63
2022/10/08 05:58:04;;;;;;;;;2.50;2.00;;;;;14.75;66.13;101782.31;5060357;28;45421;-63
2022/10/08 06:00:29;;;;;;;;;4.50;3.75;;;;;14.75;66.25;101790.38;5060371;28;46108;-63
2022/10/08 06:02:55;;;;;;;;;2.25;2.00;;;;;14.72;66.02;101785.09;5059614;28;45394;-63
2022/10/08 06:05:20;;;;;;;;;4.00;2.75;;;;;14.72;66.17;101789.59;5060614;28;45471;-63
2022/10/08 06:07:46;;;;;;;;;3.00;3.00;;;;;14.70;66.04;101786.06;5060147;28;49051;-63
2022/10/08 06:10:11;;;;;;;;;3.00;3.00;;;;;14.69;66.13;101795.94;5040571;28;46972;-63
2022/10/08 06:12:36;;;;;;;;;1.50;1.50;;;;;14.70;65.94;101803.09;5058916;28;45522;-63
2022/10/08 06:15:02;;;;;;;;;5.75;2.50;;;;;14.72;66.03;101794.97;5042197;28;46551;-63
2022/10/08 06:17:27;;;;;;;;;2.00;2.00;;;;;14.71;66.10;101807.50;5041035;28;45708;-63
2022/10/08 06:19:53;;;;;;;;;1.00;1.00;;;;;14.69;66.27;101803.13;5059373;28;46669;-63
2022/10/08 06:22:18;;;;;;;;;3.00;2.50;;;;;14.70;66.08;101811.16;5059638;28;45488;-65
2022/10/08 06:24:43;;;;;;;;;2.00;2.00;;;;;14.69;66.15;101805.81;5057827;28;45504;-65
2022/10/08 06:27:09;;;;;;;;;3.00;2.00;;;;;14.66;66.07;101804.09;5059686;28;45280;-65
2022/10/08 06:29:34;;;;;;;;;3.00;3.00;;;;;14.66;66.18;101813.97;5059233;28;46093;-65
2022/10/08 06:31:59;;;;;;;;;2.25;2.25;;;;;14.70;66.12;101831.75;5059075;28;46286;-64
2022/10/08 06:34:25;;;;;;;;;2.75;2.50;;;;;14.68;65.93;101830.94;5058582;28;45595;-65
2022/10/08 06:36:50;;;;;;;;;2.00;2.00;;;;;14.67;66.07;101829.16;5058031;28;45575;-65
2022/10/08 06:39:16;;;;;;;;;3.75;3.00;;;;;14.67;66.30;101835.44;5059568;28;46135;-64
2022/10/08 06:41:42;;;;;;;;;4.00;2.75;;;;;14.70;66.33;101845.19;5059509;28;45565;-65
2022/10/08 06:44:11;;;;;;;;;1.50;1.50;;;;;14.63;66.62;101834.66;5059092;28;45380;-65
2022/10/08 06:46:37;;;;;;;;;3.00;2.75;;;;;14.69;66.52;101835.38;5045953;28;45418;-65
2022/10/08 06:49:04;;;;;;;;;4.00;2.00;;;;;14.63;66.64;101836.44;5059538;28;46147;-64
2022/10/08 06:51:30;;;;;;;;;3.25;2.25;;;;;14.69;66.55;101851.50;5060725;28;45481;-65
2022/10/08 06:53:57;;;;;;;;;4.50;3.00;;;;;14.71;66.59;101855.88;5059747;28;45334;-65
2022/10/08 06:56:24;;;;;;;;;3.00;3.00;;;;;14.69;66.79;101849.69;5058743;28;45441;-65
2022/10/08 06:58:50;;;;;;;;;3.00;2.00;;;;;14.73;66.98;101859.41;5059165;28;46117;-65
2022/10/08 07:01:23;;;;;;;;;3.00;3.00;;;;;14.74;67.01;101863.00;5056378;28;45392;-65
2022/10/08 07:03:55;;;;;;;;;3.75;3.00;;;;;14.73;66.95;101859.41;5039857;28;45474;-64
2022/10/08 07:06:21;;;;;;;;;2.00;2.00;;;;;14.72;66.88;101857.66;5059389;28;45360;-63
2022/10/08 07:08:50;;;;;;;;;1.75;1.00;;;;;14.63;67.04;101853.47;5056148;28;46072;-65
2022/10/08 07:11:17;;;;;;;;;3.00;1.50;;;;;14.72;66.89;101864.84;5055460;28;45403;-64
2022/10/08 07:13:43;;;;;;;;;4.00;3.00;;;;;14.75;67.30;101871.00;5040480;28;45550;-65
2022/10/08 07:16:17;;;;;;;;;3.00;3.00;;;;;14.76;67.21;101877.25;5057925;28;45380;-65
2022/10/08 07:18:44;;;;;;;;;3.25;3.00;;;;;14.76;67.38;101885.31;5058413;28;45950;-65
2022/10/08 07:21:12;;;;;;;;;3.50;3.25;;;;;14.74;66.94;101887.19;5056918;28;45578;-64
2022/10/08 07:23:37;;;;;;;;;3.75;3.25;;;;;14.77;67.14;101893.34;5056713;28;45753;-64
2022/10/08 07:26:09;;;;;;;;;6.25;3.50;;;;;14.80;67.00;101895.94;5057552;28;45327;-63
2022/10/08 07:28:36;;;;;;;;;6.00;5.00;;;;;14.82;67.26;101885.13;5050063;28;45746;-64
2022/10/08 07:31:07;;;;;;;;;3.75;2.00;;;;;14.82;67.47;101893.19;5050965;28;45422;-63
2022/10/08 07:33:33;;;;;;;;;2.75;2.00;;;;;14.83;67.18;101900.31;5056067;28;45501;-63
2022/10/08 07:36:26;;;;;;;;;4.75;2.00;;;;;14.85;67.64;101906.53;5054094;28;46881;-63
2022/10/08 07:38:56;;;;;;;;;7.00;4.00;;;;;14.84;67.49;101909.28;5053075;28;46024;-63
2022/10/08 07:41:24;;;;;;;;;4.00;3.00;;;;;14.79;67.52;101912.97;5051920;28;45521;-63
2022/10/08 07:43:52;;;;;;;;;4.25;3.00;;;;;14.82;67.69;101912.88;5054476;28;45727;-63
2022/10/08 07:46:19;;;;;;;;;3.00;3.00;;;;;14.80;67.84;101913.84;5056165;28;45549;-63
2022/10/08 07:48:44;;;;;;;;;7.50;4.00;;;;;14.82;67.81;101925.44;5053349;28;45597;-63
2022/10/08 07:51:12;;;;;;;;;4.00;3.00;;;;;14.82;67.85;101922.75;5051694;28;45398;-63
2022/10/08 07:53:38;;;;;;;;;5.00;2.50;;;;;14.84;67.96;101933.47;5053814;28;45459;-63
2022/10/08 07:56:05;;;;;;;;;5.00;4.00;;;;;14.86;67.79;101937.84;5052910;28;45501;-63
2022/10/08 07:58:30;;;;;;;;;5.25;4.00;;;;;14.89;67.62;101937.75;5047543;28;46711;-63
2022/10/08 08:00:57;;;;;;;;;5.00;3.00;;;;;14.90;67.72;101933.25;5053135;28;45537;-63
2022/10/08 08:03:23;;;;;;;;;5.00;3.75;;;;;14.97;67.74;101948.28;5050549;28;45473;-63
2022/10/08 08:05:49;;;;;;;;;6.25;3.00;;;;;14.97;67.75;101943.78;5053343;28;45445;-63
2022/10/08 08:08:14;;;;;;;;;3.25;3.25;;;;;14.99;67.95;101951.81;5051567;28;45796;-63
2022/10/08 08:10:39;;;;;;;;;4.50;3.00;;;;;14.98;67.90;101950.94;5052452;28;45344;-63
2022/10/08 08:13:05;;;;;;;;;5.25;4.00;;;;;15.04;67.66;101951.66;5051834;28;45643;-63
2022/10/08 08:15:31;;;;;;;;;2.50;2.50;;;;;15.06;67.79;101955.19;5051372;28;47056;-63
2022/10/08 08:17:56;;;;;;;;;3.50;3.50;;;;;15.09;67.27;101960.47;5054835;28;45589;-64
2022/10/08 08:20:21;;;;;;;;;3.75;3.75;;;;;15.12;67.76;101963.06;5037094;28;45481;-64
2022/10/08 08:22:47;;;;;;;;;3.00;2.00;;;;;15.11;68.03;101963.97;5052561;28;45570;-63
2022/10/08 08:25:12;;;;;;;;;3.00;3.00;;;;;15.15;68.06;101968.31;5055080;28;45628;-63
2022/10/08 08:27:37;;;;;;;;;5.50;3.00;;;;;15.17;67.84;101970.03;5055060;28;46117;-63
2022/10/08 08:30:04;;;;;;;;;3.25;3.25;;;;;15.15;67.61;101968.31;5057877;28;45497;-63
2022/10/08 08:32:29;;;;;;;;;4.75;1.00;;;;;15.23;68.08;101987.78;5057098;28;45447;-63
2022/10/08 08:34:54;;;;;;;;;3.50;3.50;;;;;15.24;68.05;101975.22;5055410;28;45541;-63
2022/10/08 08:37:19;;;;;;;;;5.75;2.75;;;;;15.29;67.66;101984.03;5055173;28;46008;-63
2022/10/08 08:39:45;;;;;;;;;2.75;2.75;;;;;15.28;67.64;101976.88;5054376;28;53711;-63
2022/10/08 08:42:17;;;;;;;;;5.00;1.75;;;;;15.37;67.46;101987.34;5056772;28;45592;-63
2022/10/08 08:44:46;;;;;;;;;5.25;3.00;;;;;15.38;67.34;101992.69;5054257;28;46908;-63
2022/10/08 08:47:19;;;;;;;;;3.50;3.00;;;;;15.40;67.17;101989.03;5057288;28;45461;-63
2022/10/08 08:49:57;;;;;;;;;4.00;3.00;;;;;15.45;67.27;101992.47;5058696;28;45786;-63
2022/10/08 08:52:27;;;;;;;;;3.25;3.25;;;;;15.50;66.85;102003.94;5054052;28;45640;-63
2022/10/08 08:54:53;;;;;;;;;2.50;2.25;;;;;15.54;67.59;102009.19;5055287;28;45421;-63
2022/10/08 08:57:44;;;;;;;;;5.50;4.00;;;;;15.56;66.94;102001.06;5054533;28;46496;-63
2022/10/08 09:00:17;;;;;;;;;2.50;2.25;;;;;15.62;66.65;102010.75;5053221;28;45526;-63
2022/10/08 09:02:59;;;;;;;;;4.00;3.00;;;;;15.63;66.83;101996.34;5056370;28;46784;-65
2022/10/08 09:05:27;;;;;;;;;3.25;2.00;;;;;15.65;66.32;101997.19;5058015;28;45518;-63
2022/10/08 09:08:04;;;;;;;;;7.25;4.25;;;;;15.74;66.06;102019.28;5054464;28;46244;-64
2022/10/08 09:10:44;;;;;;;;;3.25;3.25;;;;;15.76;65.92;102011.19;5056176;28;45649;-63
2022/10/08 09:13:19;;;;;;;;;4.00;3.25;;;;;15.81;66.29;102016.44;5058509;28;45403;-63
2022/10/08 09:15:45;;;;;;;;;3.00;3.00;;;;;15.76;65.52;101997.75;5054758;28;45478;-63
2022/10/08 09:18:13;;;;;;;;;4.00;4.00;;;;;15.88;65.33;102020.66;5054762;28;45540;-63
2022/10/08 09:20:40;;;;;;;;;5.00;3.00;;;;;15.87;65.09;102011.72;5056858;28;45650;-63
2022/10/08 09:23:15;;;;;;;;;2.75;2.50;;;;;15.95;64.85;102018.66;5052943;28;45692;-63
2022/10/08 09:25:43;;;;;;;;;4.00;1.00;;;;;16.01;65.42;102024.69;5057391;28;45335;-63
2022/10/08 09:28:08;;;;;;;;;4.00;1.75;;;;;16.04;64.80;102023.72;5055976;28;46243;-63
2022/10/08 09:30:35;;;;;;;;;6.00;3.00;;;;;16.09;64.31;102022.63;5057778;28;45481;-63
2022/10/08 09:33:17;;;;;;;;;2.25;2.00;;;;;16.15;64.21;102028.72;5054732;28;45452;-63
2022/10/08 09:35:45;;;;;;;;;5.00;3.00;;;;;16.18;64.06;102034.88;5056336;28;45265;-64
2022/10/08 09:38:23;;;;;;;;;3.00;2.00;;;;;16.21;63.50;102031.22;5039923;28;48270;-63
2022/10/08 09:41:02;;;;;;;;;2.50;2.00;;;;;16.27;63.28;102037.25;5053059;28;45433;-63
2022/10/08 09:43:28;;;;;;;;;5.25;2.25;;;;;16.29;62.83;102037.22;5057421;28;45486;-63
2022/10/08 09:45:54;;;;;;;;;3.50;2.00;;;;;16.32;62.76;102030.81;5055706;28;45835;-63
2022/10/08 09:48:27;;;;;;;;;4.25;2.50;;;;;16.39;62.72;102037.72;5055640;28;46990;-64
2022/10/08 09:51:12;;;;;;;;;3.00;2.00;;;;;16.42;61.98;102041.22;5055307;28;46792;-64
2022/10/08 09:53:41;;;;;;;;;3.50;3.00;;;;;16.43;61.85;102042.09;5058091;28;46031;-63
2022/10/08 09:56:08;;;;;;;;;1.00;1.00;;;;;16.42;61.30;102041.22;5053165;28;46054;-63
2022/10/08 09:58:46;;;;;;;;;1.25;1.25;;;;;16.49;61.36;102049.97;5052809;28;45473;-63
2022/10/08 10:01:14;;;;;;;;;4.50;1.25;;;;;16.53;61.03;102042.63;5054366;28;45686;-64
2022/10/08 10:03:52;;;;;;;;;2.00;2.00;;;;;16.54;60.54;102041.69;5058094;28;45525;-63
2022/10/08 10:06:45;;;;;;;;;2.00;2.00;;;;;16.60;60.98;102039.63;5056485;28;45546;-63
2022/10/08 10:09:10;;;;;;;;;3.00;2.00;;;;;16.63;61.06;102047.63;5056220;28;45565;-64
2022/10/08 10:11:46;;;;;;;;;1.67;1.00;;;;;16.66;60.38;102042.13;5059333;28;45582;-63
2022/10/08 10:14:47;;;;;;;;;2.00;2.00;;;;;16.72;60.30;102046.38;5057586;28;45394;-63
2022/10/08 10:17:26;;;;;;;;;2.25;1.50;;;;;16.73;60.35;102045.47;5050427;28;45278;-63
2022/10/08 10:19:58;;;;;;;;;4.25;3.00;;;;;16.77;60.06;102044.44;5060084;28;45332;-63
2022/10/08 10:22:36;;;;;;;;;4.00;2.25;;;;;16.80;59.96;102046.97;5059168;28;45473;-63
2022/10/08 10:25:10;;;;;;;;;2.00;2.00;;;;;16.82;59.30;102050.53;5049883;28;46097;-64
2022/10/08 10:27:52;;;;;;;;;1.00;1.00;;;;;16.79;58.46;102049.72;5053002;28;45616;-63
2022/10/08 10:30:24;;;;;;;;;2.50;2.00;;;;;16.82;58.45;102047.84;5055852;28;45690;-64
2022/10/08 10:32:59;;;;;;;;;2.75;1.50;;;;;16.84;57.73;102047.78;5055870;28;45571;-64
2022/10/08 10:35:27;;;;;;;;;3.00;1.00;;;;;16.88;58.60;102049.44;5056422;28;45706;-64
2022/10/08 10:37:58;;;;;;;;;3.25;1.25;;;;;16.93;58.01;102043.88;5056217;28;45412;-65
2022/10/08 10:40:26;;;;;;;;;2.00;1.00;;;;;16.96;57.55;102052.72;5055516;28;45599;-64
2022/10/08 10:43:05;;;;;;;;;2.25;2.00;;;;;16.99;57.27;102054.41;5057420;28;45710;-64
2022/10/08 10:45:33;;;;;;;;;2.25;2.00;;;;;17.00;57.25;102048.09;5054698;28;45573;-64
2022/10/08 10:47:59;;;;;;;;;4.00;1.00;;;;;17.00;57.05;102045.38;5055590;28;45636;-65
2022/10/08 10:50:38;;;;;;;;;3.25;1.00;;;;;17.07;57.33;102056.81;5054022;28;46213;-64
2022/10/08 10:53:18;;;;;;;;;2.50;2.00;;;;;17.07;56.99;102051.41;5052384;28;45842;-64
2022/10/08 10:56:13;;;;;;;;;1.00;1.00;;;;;17.16;57.43;102059.19;5053729;28;45457;-65
2022/10/08 10:58:41;;;;;;;;;1.00;1.00;;;;;17.21;56.68;102059.88;5054383;28;45764;-64
2022/10/08 11:01:25;;;;;;;;;3.25;2.00;;;;;17.20;57.24;102044.59;5054980;28;46222;-65
2022/10/08 11:03:53;;;;;;;;;1.25;1.25;;;;;17.30;56.64;102058.63;5055516;28;45613;-67
2022/10/08 11:06:37;;;;;;;;;3.00;1.25;;;;;17.33;56.45;102066.59;5059001;28;45458;-63
2022/10/08 11:09:15;;;;;;;;;3.25;2.00;;;;;17.28;55.62;102063.22;5059608;28;45518;-63
2022/10/08 11:11:47;;;;;;;;;1.00;1.00;;;;;17.28;55.66;102063.22;5059458;28;45486;-63
2022/10/08 11:14:34;;;;;;;;;2.00;1.00;;;;;17.32;56.05;102060.31;5059276;28;45667;-63
2022/10/08 11:17:00;;;;;;;;;0.50;0.50;;;;;17.36;55.23;102058.38;5059665;28;45340;-63
2022/10/08 11:19:40;;;;;;;;;4.00;3.50;;;;;17.37;55.69;102055.63;5059634;28;45466;-63
2022/10/08 11:22:11;;;;;;;;;1.50;1.50;;;;;17.40;55.44;102057.31;5058187;28;46291;-63
2022/10/08 11:24:51;;;;;;;;;2.00;1.00;;;;;17.44;55.07;102055.34;5059195;28;45403;-63
2022/10/08 11:27:35;;;;;;;;;2.00;0.75;;;;;17.46;54.32;102057.06;5050736;28;45347;-63
2022/10/08 11:30:33;;;;;;;;;0.50;0.50;;;;;17.48;54.29;102051.63;5057172;28;45465;-63
2022/10/08 11:32:59;;;;;;;;;1.00;1.00;;;;;17.46;54.74;102034.56;5046576;28;45447;-63
2022/10/08 11:35:39;;;;;;;;;6.00;3.75;;;;;17.51;54.69;102052.38;5059294;28;45720;-63
2022/10/08 11:38:28;;;;;;;;;3.75;1.25;;;;;17.54;54.95;102044.13;5058893;28;45479;-63
2022/10/08 11:41:24;;;;;;;;;0.00;0.00;;;;;17.59;54.61;102047.53;5059040;28;45561;-63